Time;durP1;ratioP1;P1;durP2;ratioP2;P2;SDS_P1;SDS_P2;PMS_P1;PMS_P2;Temp;Humidity;BMP_temperature;BMP_pressure;BME280_temperature;BME280_humidity;BME280_pressure;Samples;Min_cycle;Max_cycle;Signal;HPM_P1;HPM_P2
2022/11/08 00:01:34;;;;;;;9.55;3.88;;;12.90;99.90;;;;;;5046133;28;20055;-78
2022/11/08 00:04:08;;;;;;;12.50;3.15;;;12.80;99.90;;;;;;5050677;28;20052;-78
2022/11/08 00:14:48;;;;;;;10.00;3.55;;;13.00;99.90;;;;;;5042619;28;20139;-77
2022/11/08 00:17:15;;;;;;;10.45;3.05;;;12.90;99.90;;;;;;5042888;28;20203;-78
2022/11/08 00:19:42;;;;;;;9.00;3.67;;;13.00;99.90;;;;;;5041477;28;20041;-78
2022/11/08 00:22:08;;;;;;;4.53;3.20;;;12.90;99.90;;;;;;5046081;28;21049;-78
2022/11/08 00:24:34;;;;;;;8.68;4.05;;;12.90;99.90;;;;;;5047962;28;20044;-78
2022/11/08 00:27:04;;;;;;;10.40;3.30;;;13.00;99.90;;;;;;5045233;28;20055;-78
2022/11/08 00:29:30;;;;;;;6.70;3.50;;;13.00;99.90;;;;;;5049439;28;20048;-78
2022/11/08 00:31:56;;;;;;;7.38;3.10;;;13.00;99.90;;;;;;5048874;28;20052;-78
2022/11/08 00:34:21;;;;;;;9.77;3.13;;;12.90;99.90;;;;;;5041429;28;20068;-79
2022/11/08 00:36:47;;;;;;;8.60;3.42;;;13.00;99.90;;;;;;5048965;28;20102;-78
2022/11/08 00:39:13;;;;;;;9.65;3.00;;;13.00;99.90;;;;;;5045449;28;20047;-78
2022/11/08 00:41:38;;;;;;;5.68;2.85;;;13.00;99.90;;;;;;5041492;28;20057;-78
2022/11/08 00:44:04;;;;;;;9.27;3.38;;;13.00;99.90;;;;;;5054018;28;20044;-78
2022/11/08 00:46:30;;;;;;;4.43;2.33;;;13.00;99.90;;;;;;5044322;28;20110;-78
2022/11/08 00:48:56;;;;;;;8.75;3.03;;;12.90;99.90;;;;;;5050497;28;20600;-78
2022/11/08 00:51:21;;;;;;;8.02;3.03;;;12.90;99.90;;;;;;5045604;28;20079;-78
2022/11/08 00:53:47;;;;;;;5.90;3.28;;;12.90;99.90;;;;;;5048509;28;20153;-78
2022/11/08 00:56:13;;;;;;;6.70;2.75;;;12.90;99.90;;;;;;5050294;28;20121;-78
2022/11/08 00:58:40;;;;;;;6.80;2.75;;;12.90;99.90;;;;;;5050845;28;20092;-78
2022/11/08 01:01:10;;;;;;;7.05;2.92;;;12.80;99.90;;;;;;5040248;28;20072;-78
2022/11/08 01:03:36;;;;;;;11.50;2.80;;;12.90;99.90;;;;;;5044502;28;20165;-78
2022/11/08 01:06:04;;;;;;;8.10;2.95;;;12.80;99.90;;;;;;5045716;28;20792;-79
2022/11/08 01:08:30;;;;;;;6.57;3.60;;;12.80;99.90;;;;;;5044762;28;20040;-78
2022/11/08 01:10:56;;;;;;;6.85;2.97;;;12.80;99.90;;;;;;5052633;28;20120;-79
2022/11/08 01:13:22;;;;;;;6.72;3.78;;;12.80;99.90;;;;;;5050541;28;20061;-79
2022/11/08 01:15:48;;;;;;;4.53;2.45;;;12.80;99.90;;;;;;5047113;28;20152;-78
2022/11/08 01:18:15;;;;;;;5.47;2.78;;;12.80;99.90;;;;;;5047313;28;20168;-78
2022/11/08 01:20:42;;;;;;;9.30;2.78;;;12.80;99.90;;;;;;5038330;28;20388;-79
2022/11/08 01:23:09;;;;;;;6.13;2.70;;;12.70;99.90;;;;;;5050080;28;20072;-79
2022/11/08 01:25:36;;;;;;;4.63;3.33;;;12.60;99.90;;;;;;5053352;28;20905;-79
2022/11/08 01:28:02;;;;;;;4.95;2.58;;;12.60;99.90;;;;;;5050496;28;20088;-78
2022/11/08 01:30:28;;;;;;;8.25;3.33;;;12.60;99.90;;;;;;5048703;28;20049;-79
2022/11/08 01:32:53;;;;;;;9.45;3.53;;;12.60;99.90;;;;;;5044472;28;20488;-79
2022/11/08 01:35:19;;;;;;;10.35;2.90;;;12.50;99.90;;;;;;5054117;28;20754;-78
2022/11/08 01:37:45;;;;;;;5.90;2.83;;;12.50;99.90;;;;;;5046230;28;20048;-78
2022/11/08 01:40:11;;;;;;;5.05;2.78;;;12.50;99.90;;;;;;5050078;28;20125;-78
2022/11/08 01:42:36;;;;;;;6.00;3.50;;;12.50;99.90;;;;;;5049152;28;20131;-79
2022/11/08 01:45:08;;;;;;;5.30;3.03;;;11.90;99.90;;;;;;5054092;28;20055;-78
2022/11/08 01:47:34;;;;;;;8.57;2.95;;;12.40;99.90;;;;;;5052749;28;20040;-79
2022/11/08 01:50:15;;;;;;;6.28;3.50;;;12.40;99.90;;;;;;5054600;28;20041;-78
2022/11/08 01:52:51;;;;;;;8.15;3.03;;;12.30;99.90;;;;;;5053151;28;20500;-79
2022/11/08 01:55:34;;;;;;;5.13;2.83;;;12.30;99.90;;;;;;5059502;28;20040;-79
2022/11/08 01:58:09;;;;;;;6.03;3.17;;;12.30;99.90;;;;;;5054502;28;20124;-79
2022/11/08 02:00:37;;;;;;;9.65;3.10;;;12.40;99.90;;;;;;5057643;28;20126;-78
2022/11/08 02:03:04;;;;;;;9.60;4.15;;;12.40;99.90;;;;;;5049278;28;20156;-78
2022/11/08 02:05:30;;;;;;;8.77;3.25;;;12.40;99.90;;;;;;5053141;28;20036;-78
2022/11/08 02:07:56;;;;;;;8.50;2.97;;;12.40;99.90;;;;;;5058517;28;20045;-80
2022/11/08 02:10:27;;;;;;;5.45;2.58;;;12.40;99.90;;;;;;5056664;28;20051;-79
2022/11/08 02:12:53;;;;;;;7.07;3.13;;;12.30;99.90;;;;;;5063839;28;20053;-78
2022/11/08 02:15:22;;;;;;;5.70;3.50;;;12.30;99.90;;;;;;5051654;28;20106;-80
2022/11/08 02:17:47;;;;;;;4.10;2.50;;;12.20;99.90;;;;;;5054500;28;20535;-78
2022/11/08 02:20:13;;;;;;;7.88;3.83;;;12.20;99.90;;;;;;5050184;28;20200;-79
2022/11/08 02:23:00;;;;;;;6.97;2.80;;;12.20;99.90;;;;;;5044439;28;20621;-79
2022/11/08 02:25:26;;;;;;;6.13;2.83;;;12.10;99.90;;;;;;5055246;28;20053;-79
2022/11/08 02:27:52;;;;;;;7.38;2.97;;;12.10;99.90;;;;;;5053878;28;20091;-80
2022/11/08 02:30:18;;;;;;;5.40;3.65;;;12.10;99.90;;;;;;5052116;28;20060;-79
2022/11/08 02:32:43;;;;;;;6.25;3.25;;;12.10;99.90;;;;;;5048707;28;20044;-80
2022/11/08 02:35:16;;;;;;;10.00;3.38;;;12.10;99.90;;;;;;5053241;28;20052;-79
2022/11/08 02:37:42;;;;;;;4.55;3.33;;;12.10;99.90;;;;;;5051461;28;20079;-78
2022/11/08 02:40:09;;;;;;;5.22;2.90;;;12.00;99.90;;;;;;5048283;28;20040;-79
2022/11/08 02:42:37;;;;;;;5.65;3.65;;;12.00;99.90;;;;;;5050337;28;20052;-81
2022/11/08 02:45:04;;;;;;;4.75;3.03;;;12.00;99.90;;;;;;5054732;28;20075;-78
2022/11/08 02:47:30;;;;;;;6.45;3.08;;;11.50;99.90;;;;;;5052109;28;20051;-78
2022/11/08 02:49:56;;;;;;;5.88;3.17;;;11.90;99.90;;;;;;5052521;28;20045;-79
2022/11/08 02:52:22;;;;;;;8.27;2.38;;;12.00;99.90;;;;;;5049554;28;20130;-79
2022/11/08 02:54:47;;;;;;;9.43;3.83;;;11.90;99.90;;;;;;5050090;28;20590;-79
2022/11/08 02:57:13;;;;;;;11.90;3.58;;;11.90;99.90;;;;;;5053669;28;20514;-79
2022/11/08 02:59:39;;;;;;;10.35;3.05;;;11.80;99.90;;;;;;5053860;28;20113;-78
2022/11/08 03:02:04;;;;;;;6.28;3.75;;;11.90;99.90;;;;;;5059934;28;20040;-78
2022/11/08 03:04:30;;;;;;;7.85;3.17;;;11.80;99.90;;;;;;5053217;28;20558;-78
2022/11/08 03:06:56;;;;;;;8.68;3.60;;;11.80;99.90;;;;;;5053311;28;20200;-80
2022/11/08 03:09:21;;;;;;;6.72;3.30;;;11.80;99.90;;;;;;5048789;28;20040;-81
2022/11/08 03:11:47;;;;;;;6.82;2.70;;;11.80;99.90;;;;;;5050718;28;20048;-79
2022/11/08 03:14:13;;;;;;;7.85;3.50;;;11.80;99.90;;;;;;5054251;28;20056;-79
2022/11/08 03:16:38;;;;;;;10.13;2.75;;;11.80;99.90;;;;;;5052423;28;20056;-78
2022/11/08 03:19:04;;;;;;;7.53;2.83;;;11.80;99.90;;;;;;5051411;28;20048;-78
2022/11/08 03:21:30;;;;;;;6.60;3.28;;;11.70;99.90;;;;;;5052351;28;20098;-78
2022/11/08 03:23:55;;;;;;;6.03;3.40;;;11.80;99.90;;;;;;5051464;28;20708;-78
2022/11/08 03:26:21;;;;;;;12.73;3.55;;;11.80;99.90;;;;;;5041423;28;20048;-78
2022/11/08 03:28:47;;;;;;;5.53;3.17;;;11.80;99.90;;;;;;5045768;28;20686;-80
2022/11/08 03:31:12;;;;;;;9.70;3.63;;;11.70;99.90;;;;;;5048724;28;20049;-78
2022/11/08 03:33:38;;;;;;;5.65;2.95;;;11.70;99.90;;;;;;5052388;28;20056;-79
2022/11/08 03:36:04;;;;;;;6.47;3.20;;;11.70;99.90;;;;;;5051559;28;20045;-79
2022/11/08 03:38:30;;;;;;;8.73;3.85;;;11.70;99.90;;;;;;5052348;28;20037;-79
2022/11/08 03:40:55;;;;;;;5.15;3.30;;;11.30;99.90;;;;;;5048104;28;20754;-79
2022/11/08 03:43:21;;;;;;;6.43;3.03;;;11.70;99.90;;;;;;5049690;28;20477;-79
2022/11/08 03:45:46;;;;;;;11.43;3.13;;;11.70;99.90;;;;;;5055516;28;20588;-78
2022/11/08 03:48:12;;;;;;;10.82;4.03;;;11.80;99.90;;;;;;5051639;28;20044;-79
2022/11/08 03:50:38;;;;;;;6.68;3.08;;;11.70;99.90;;;;;;5029559;28;20579;-79
2022/11/08 03:53:03;;;;;;;5.22;2.63;;;11.70;99.90;;;;;;5048936;28;20064;-79
2022/11/08 03:55:29;;;;;;;5.05;2.88;;;11.70;99.90;;;;;;5048501;28;20040;-79
2022/11/08 03:57:55;;;;;;;3.50;2.58;;;11.70;99.90;;;;;;5047730;28;20052;-79
2022/11/08 04:00:25;;;;;;;7.63;3.17;;;11.70;99.90;;;;;;5044242;28;20094;-78
2022/11/08 04:02:51;;;;;;;5.40;2.90;;;11.60;99.90;;;;;;5044771;28;20040;-79
2022/11/08 04:05:17;;;;;;;5.72;2.72;;;11.60;99.90;;;;;;5049552;28;20055;-79
2022/11/08 04:07:43;;;;;;;9.95;3.03;;;11.60;99.90;;;;;;5049887;28;20040;-79
2022/11/08 04:10:10;;;;;;;8.85;2.85;;;11.60;99.90;;;;;;5047511;28;20536;-79
2022/11/08 04:15:28;;;;;;;5.68;2.88;;;11.50;99.90;;;;;;5047259;28;20171;-79
2022/11/08 04:23:32;;;;;;;7.30;3.22;;;11.40;99.90;;;;;;5044156;28;20048;-79
2022/11/08 04:26:00;;;;;;;5.18;2.85;;;11.40;99.90;;;;;;5041840;28;20040;-79
2022/11/08 04:28:29;;;;;;;5.20;2.83;;;11.40;99.90;;;;;;5050301;28;20225;-79
2022/11/08 04:31:00;;;;;;;3.78;2.72;;;11.40;99.90;;;;;;5043912;28;21016;-79
2022/11/08 04:33:26;;;;;;;5.70;2.97;;;11.40;99.90;;;;;;5048495;28;20045;-79
2022/11/08 04:35:52;;;;;;;10.80;3.53;;;11.30;99.90;;;;;;5050480;28;20056;-80
2022/11/08 04:38:17;;;;;;;8.02;3.15;;;11.40;99.90;;;;;;5048796;28;20052;-79
2022/11/08 04:40:44;;;;;;;5.13;2.72;;;11.40;99.90;;;;;;5050486;28;20075;-80
2022/11/08 04:43:10;;;;;;;5.78;3.05;;;11.40;99.90;;;;;;5054403;28;20404;-79
2022/11/08 04:45:36;;;;;;;5.63;3.38;;;11.40;99.90;;;;;;5037378;28;20041;-78
2022/11/08 04:48:02;;;;;;;5.60;3.38;;;11.40;99.90;;;;;;5049912;28;20851;-79
2022/11/08 04:50:27;;;;;;;4.57;3.17;;;11.40;99.90;;;;;;5054060;28;20056;-78
2022/11/08 04:52:54;;;;;;;5.70;3.08;;;11.40;99.90;;;;;;5050805;28;20071;-81
2022/11/08 04:55:21;;;;;;;4.38;3.00;;;11.50;99.90;;;;;;5038084;28;20049;-79
2022/11/08 04:57:47;;;;;;;6.43;3.42;;;11.50;99.90;;;;;;5047962;28;20048;-80
2022/11/08 05:00:14;;;;;;;9.50;3.10;;;11.60;99.90;;;;;;5044955;28;20044;-78
2022/11/08 05:02:39;;;;;;;9.82;3.55;;;11.50;99.90;;;;;;5047375;28;20063;-79
2022/11/08 05:05:06;;;;;;;6.18;3.00;;;11.50;99.90;;;;;;5047400;28;20400;-78
2022/11/08 05:07:31;;;;;;;7.78;3.22;;;11.50;99.90;;;;;;5052536;28;20809;-79
2022/11/08 05:09:57;;;;;;;3.95;2.70;;;11.50;99.90;;;;;;5047458;28;20041;-79
2022/11/08 05:12:23;;;;;;;4.55;2.65;;;11.50;99.90;;;;;;5055183;28;20149;-79
2022/11/08 05:14:48;;;;;;;3.22;2.17;;;11.50;99.90;;;;;;5047008;28;20110;-79
2022/11/08 05:17:15;;;;;;;8.75;2.67;;;11.40;99.90;;;;;;5053465;28;20057;-80
2022/11/08 05:25:09;;;;;;;8.10;3.20;;;11.40;99.90;;;;;;5052966;28;20095;-79
2022/11/08 05:27:35;;;;;;;4.82;2.55;;;11.40;99.90;;;;;;5047322;28;20131;-79
2022/11/08 05:30:01;;;;;;;11.95;3.13;;;11.40;99.90;;;;;;5056495;28;20043;-80
2022/11/08 05:32:27;;;;;;;4.38;2.88;;;11.30;99.90;;;;;;5048728;28;20056;-79
2022/11/08 05:34:52;;;;;;;5.70;2.63;;;11.40;99.90;;;;;;5049928;28;20055;-80
2022/11/08 05:37:18;;;;;;;4.50;2.78;;;11.30;99.90;;;;;;5054239;28;20056;-80
2022/11/08 05:39:44;;;;;;;7.18;2.53;;;11.40;99.90;;;;;;5046218;28;20983;-79
2022/11/08 05:42:09;;;;;;;6.55;2.80;;;11.40;99.90;;;;;;5044856;28;20049;-79
2022/11/08 05:44:35;;;;;;;7.70;3.92;;;11.30;99.90;;;;;;5055960;28;20392;-80
2022/11/08 05:47:01;;;;;;;6.28;3.20;;;11.40;99.90;;;;;;5046031;28;20561;-78
2022/11/08 05:49:26;;;;;;;8.70;2.70;;;11.30;99.90;;;;;;5050749;28;20040;-80
2022/11/08 05:51:52;;;;;;;7.60;2.58;;;11.40;99.90;;;;;;5048324;28;20103;-80
2022/11/08 05:54:17;;;;;;;4.60;2.50;;;11.30;99.90;;;;;;5052203;28;20040;-80
2022/11/08 05:56:43;;;;;;;3.55;2.60;;;11.30;99.90;;;;;;5055127;28;20063;-79
2022/11/08 05:59:09;;;;;;;6.32;2.55;;;11.30;99.90;;;;;;5044331;28;20088;-81
2022/11/08 06:01:34;;;;;;;7.20;2.65;;;11.30;99.90;;;;;;5042551;28;20345;-80
2022/11/08 06:04:00;;;;;;;4.30;3.17;;;11.40;99.90;;;;;;5040190;28;20053;-80
2022/11/08 06:06:26;;;;;;;3.90;2.13;;;11.30;99.90;;;;;;5042250;28;20859;-80
2022/11/08 06:08:51;;;;;;;5.20;2.85;;;11.30;99.90;;;;;;5049162;28;20412;-80
2022/11/08 06:11:22;;;;;;;4.97;2.75;;;11.30;99.90;;;;;;5054790;28;20169;-80
2022/11/08 06:13:48;;;;;;;4.20;2.47;;;11.30;99.90;;;;;;5050855;28;20056;-79
2022/11/08 06:16:16;;;;;;;4.93;2.75;;;11.20;99.90;;;;;;5055560;28;20421;-79
2022/11/08 06:18:42;;;;;;;5.85;2.75;;;11.30;99.90;;;;;;5047571;28;20037;-80
2022/11/08 06:21:11;;;;;;;8.23;3.88;;;11.20;99.90;;;;;;5049386;28;20045;-78
2022/11/08 06:23:37;;;;;;;6.63;2.72;;;11.20;99.90;;;;;;5044528;28;20124;-79
2022/11/08 06:26:03;;;;;;;6.05;2.75;;;11.20;99.90;;;;;;5050654;28;20040;-79
2022/11/08 06:28:29;;;;;;;6.10;3.08;;;11.20;99.90;;;;;;5046017;28;20076;-78
2022/11/08 06:30:57;;;;;;;4.63;2.63;;;11.20;99.90;;;;;;5048023;28;20044;-79
2022/11/08 06:33:24;;;;;;;5.28;3.22;;;11.20;99.90;;;;;;5050111;28;20048;-79
2022/11/08 06:35:50;;;;;;;3.72;2.45;;;11.30;99.90;;;;;;5012596;28;20053;-79
2022/11/08 06:38:15;;;;;;;9.30;2.58;;;11.20;99.90;;;;;;5051055;28;20094;-79
2022/11/08 06:40:41;;;;;;;5.72;2.30;;;11.20;99.90;;;;;;5043252;28;20126;-80
2022/11/08 06:43:08;;;;;;;5.10;2.70;;;11.20;99.90;;;;;;5046849;28;20857;-80
2022/11/08 06:45:36;;;;;;;5.15;2.97;;;11.30;99.90;;;;;;5040807;28;20136;-79
2022/11/08 06:48:03;;;;;;;4.55;2.58;;;11.30;99.90;;;;;;5051690;28;20048;-79
2022/11/08 06:50:30;;;;;;;8.23;4.22;;;11.20;99.90;;;;;;5043320;28;20057;-79
2022/11/08 06:53:07;;;;;;;8.52;3.20;;;11.20;99.90;;;;;;5048366;28;20045;-80
2022/11/08 06:55:34;;;;;;;5.72;3.50;;;11.20;99.90;;;;;;5040432;28;20041;-80
2022/11/08 06:58:00;;;;;;;8.43;3.85;;;11.30;99.90;;;;;;5038590;28;20056;-80
2022/11/08 07:00:26;;;;;;;10.20;3.85;;;11.30;99.90;;;;;;5042013;28;20052;-81
2022/11/08 07:02:53;;;;;;;5.38;3.20;;;11.30;99.90;;;;;;5044942;28;20131;-80
2022/11/08 07:05:19;;;;;;;8.70;3.22;;;11.30;99.90;;;;;;5043403;28;20317;-79
2022/11/08 07:07:50;;;;;;;6.40;3.28;;;11.30;99.90;;;;;;5047697;28;20040;-80
2022/11/08 07:10:18;;;;;;;4.80;2.95;;;11.30;99.90;;;;;;5025063;28;20052;-80
2022/11/08 07:12:43;;;;;;;5.18;3.15;;;11.40;99.90;;;;;;5050451;28;20052;-80
2022/11/08 07:15:10;;;;;;;5.18;3.03;;;11.50;99.90;;;;;;5044035;28;20063;-78
2022/11/08 07:17:35;;;;;;;7.75;3.25;;;11.50;99.90;;;;;;5046752;28;20067;-81
2022/11/08 07:20:01;;;;;;;7.07;2.85;;;11.50;99.90;;;;;;5048091;28;20032;-80
2022/11/08 07:22:26;;;;;;;3.60;2.22;;;11.60;99.90;;;;;;5047594;28;20055;-80
2022/11/08 07:24:52;;;;;;;6.63;2.80;;;11.60;99.90;;;;;;5050605;28;20045;-80
2022/11/08 07:27:18;;;;;;;7.15;3.45;;;11.70;99.90;;;;;;5052105;28;20604;-83
2022/11/08 07:29:43;;;;;;;3.80;2.80;;;11.60;99.90;;;;;;5052940;28;20823;-86
2022/11/08 07:32:09;;;;;;;4.38;2.75;;;11.70;99.90;;;;;;5040705;28;20056;-81
2022/11/08 07:34:35;;;;;;;5.30;2.63;;;11.70;99.90;;;;;;5042248;28;20055;-83
2022/11/08 07:37:01;;;;;;;6.13;2.58;;;11.70;99.90;;;;;;5041796;28;20060;-83
2022/11/08 07:39:26;;;;;;;6.57;2.53;;;11.70;99.90;;;;;;5063335;28;20055;-80
2022/11/08 07:41:52;;;;;;;4.57;2.75;;;11.80;99.90;;;;;;5047591;28;20091;-80
2022/11/08 07:44:18;;;;;;;7.97;2.58;;;11.80;99.90;;;;;;5048425;28;20090;-80
2022/11/08 07:46:43;;;;;;;4.22;2.33;;;11.90;99.90;;;;;;5047692;28;20110;-82
2022/11/08 07:49:09;;;;;;;7.05;2.45;;;11.90;99.90;;;;;;5046573;28;20048;-79
2022/11/08 07:51:34;;;;;;;5.20;2.35;;;11.90;99.90;;;;;;5041421;28;20489;-80
2022/11/08 07:54:00;;;;;;;2.20;1.95;;;12.00;99.90;;;;;;5042660;28;20048;-78
2022/11/08 07:56:26;;;;;;;3.92;2.38;;;12.00;99.90;;;;;;5051661;28;20041;-79
2022/11/08 07:58:52;;;;;;;9.07;2.22;;;12.10;99.90;;;;;;5049115;28;20052;-79
2022/11/08 08:01:18;;;;;;;4.95;2.30;;;12.10;99.90;;;;;;5040548;28;20123;-78
2022/11/08 08:03:43;;;;;;;3.10;2.63;;;12.10;99.90;;;;;;5050071;28;20075;-80
2022/11/08 08:06:09;;;;;;;3.15;1.52;;;12.20;99.90;;;;;;5046464;28;20434;-79
2022/11/08 08:08:35;;;;;;;5.07;2.50;;;12.20;99.90;;;;;;5049078;28;20151;-80
2022/11/08 08:11:02;;;;;;;3.25;1.92;;;12.30;99.90;;;;;;5052388;28;20114;-80
2022/11/08 08:13:28;;;;;;;5.25;2.10;;;12.30;99.90;;;;;;5024125;28;20061;-78
2022/11/08 08:15:57;;;;;;;6.35;2.15;;;12.30;99.90;;;;;;5037643;28;20049;-79
2022/11/08 08:18:23;;;;;;;4.85;2.05;;;12.40;99.90;;;;;;5048123;28;20052;-79
2022/11/08 08:20:48;;;;;;;5.78;2.40;;;12.50;99.90;;;;;;5041938;28;20052;-79
2022/11/08 08:23:14;;;;;;;5.55;2.42;;;12.50;99.90;;;;;;5046320;28;20048;-79
2022/11/08 08:25:40;;;;;;;3.03;2.25;;;12.50;99.90;;;;;;5048438;28;20127;-81
2022/11/08 08:28:05;;;;;;;6.63;2.22;;;12.60;99.90;;;;;;5043690;28;20123;-78
2022/11/08 08:30:32;;;;;;;2.78;1.90;;;12.60;99.90;;;;;;5042438;28;20059;-79
2022/11/08 08:33:06;;;;;;;2.85;2.15;;;12.60;99.90;;;;;;5045352;28;20405;-79
2022/11/08 08:35:33;;;;;;;5.88;2.10;;;12.70;99.90;;;;;;5052259;28;20049;-80
2022/11/08 08:38:00;;;;;;;2.35;1.98;;;12.70;99.90;;;;;;5051655;28;21249;-79
2022/11/08 08:40:26;;;;;;;4.75;2.45;;;12.80;99.90;;;;;;5043681;28;20166;-80
2022/11/08 08:42:52;;;;;;;5.18;1.85;;;12.80;99.90;;;;;;5048286;28;20151;-80
2022/11/08 08:45:18;;;;;;;3.95;1.60;;;12.80;99.90;;;;;;5046867;28;20681;-77
2022/11/08 08:47:43;;;;;;;6.90;2.28;;;12.90;99.90;;;;;;5048745;28;20036;-76
2022/11/08 08:50:09;;;;;;;3.63;2.00;;;12.90;99.90;;;;;;5046032;28;20048;-79
2022/11/08 08:52:35;;;;;;;3.92;1.90;;;13.00;99.90;;;;;;5045033;28;20907;-82
2022/11/08 08:55:01;;;;;;;2.45;1.45;;;13.00;99.90;;;;;;5043313;28;20065;-80
2022/11/08 08:57:26;;;;;;;3.17;1.67;;;13.10;99.90;;;;;;5046132;28;20079;-81
2022/11/08 08:59:52;;;;;;;5.28;2.28;;;13.10;99.90;;;;;;5049833;28;20503;-79
2022/11/08 09:02:18;;;;;;;4.30;1.80;;;13.20;99.90;;;;;;5049238;28;20056;-81
2022/11/08 09:04:43;;;;;;;7.20;2.47;;;13.20;99.90;;;;;;5045226;28;20041;-81
2022/11/08 09:07:09;;;;;;;2.05;1.77;;;13.20;99.90;;;;;;5023867;28;20143;-80
2022/11/08 09:09:35;;;;;;;1.58;1.48;;;13.30;99.90;;;;;;5050257;28;20133;-81
2022/11/08 09:12:01;;;;;;;2.38;1.70;;;13.30;99.90;;;;;;5049883;28;20148;-81
2022/11/08 09:14:27;;;;;;;3.45;1.75;;;13.40;99.90;;;;;;5026029;28;20057;-81
2022/11/08 09:16:53;;;;;;;3.13;2.25;;;13.50;99.90;;;;;;5045843;28;20060;-79
2022/11/08 09:19:18;;;;;;;3.45;2.13;;;13.60;99.90;;;;;;5051639;28;20049;-80
2022/11/08 09:21:44;;;;;;;6.18;1.92;;;13.30;99.90;;;;;;5048783;28;20474;-79
2022/11/08 09:24:10;;;;;;;4.25;1.63;;;13.80;99.90;;;;;;5046679;28;20580;-79
2022/11/08 09:26:35;;;;;;;2.42;1.80;;;13.90;99.90;;;;;;5048745;28;20422;-81
2022/11/08 09:29:01;;;;;;;3.67;1.90;;;14.00;99.90;;;;;;5051954;28;21169;-80
2022/11/08 09:31:27;;;;;;;2.83;1.95;;;14.00;99.90;;;;;;5046812;28;20134;-80
2022/11/08 09:33:52;;;;;;;4.43;1.92;;;14.10;99.90;;;;;;5047387;28;20084;-79
2022/11/08 09:36:18;;;;;;;2.47;1.95;;;14.10;99.90;;;;;;5039688;28;20741;-80
2022/11/08 09:38:44;;;;;;;2.75;1.70;;;14.20;99.90;;;;;;5047892;28;20076;-81
2022/11/08 09:41:31;;;;;;;2.33;1.98;;;14.30;99.90;;;;;;5040047;28;20052;-78
2022/11/08 09:44:34;;;;;;;1.98;1.60;;;14.40;99.90;;;;;;5052369;28;20044;-79
2022/11/08 09:47:28;;;;;;;2.30;2.10;;;14.40;99.90;;;;;;5042414;28;20127;-79
2022/11/08 09:50:21;;;;;;;2.38;1.70;;;14.50;99.90;;;;;;5053761;28;20135;-79
2022/11/08 09:53:10;;;;;;;2.65;1.88;;;14.60;99.90;;;;;;5043180;28;20512;-79
2022/11/08 09:55:41;;;;;;;1.67;1.58;;;14.60;99.90;;;;;;5031518;28;20059;-79
2022/11/08 09:58:20;;;;;;;7.50;1.88;;;14.60;99.90;;;;;;5062476;28;20088;-79
2022/11/08 10:00:49;;;;;;;3.03;1.67;;;14.60;99.90;;;;;;5049626;28;20044;-79
2022/11/08 10:03:16;;;;;;;2.95;1.75;;;14.60;99.90;;;;;;5038555;28;20045;-81
2022/11/08 10:06:19;;;;;;;2.50;1.73;;;14.60;99.90;;;;;;5045181;28;20057;-80
2022/11/08 10:09:12;;;;;;;4.60;1.77;;;14.60;99.90;;;;;;5051339;28;20048;-81
2022/11/08 10:12:01;;;;;;;2.72;1.85;;;14.70;99.90;;;;;;5048106;28;20299;-80
2022/11/08 10:15:06;;;;;;;2.95;1.88;;;14.70;99.90;;;;;;5059320;28;20049;-81
2022/11/08 10:17:53;;;;;;;5.38;2.15;;;14.70;99.90;;;;;;5043759;28;20103;-82
2022/11/08 10:20:25;;;;;;;2.85;1.67;;;14.70;99.90;;;;;;5049313;28;20052;-81
2022/11/08 10:23:23;;;;;;;2.88;1.90;;;14.70;99.90;;;;;;5047975;28;20095;-81
2022/11/08 10:26:18;;;;;;;3.22;1.85;;;14.70;99.90;;;;;;5046155;28;20547;-80
2022/11/08 10:28:49;;;;;;;3.28;1.75;;;14.70;99.90;;;;;;5046860;28;20280;-79
2022/11/08 10:31:16;;;;;;;3.22;1.85;;;14.80;99.90;;;;;;5043574;28;20087;-80
2022/11/08 10:33:48;;;;;;;1.65;1.50;;;14.80;99.90;;;;;;5052089;28;20044;-81
2022/11/08 10:36:28;;;;;;;2.28;1.85;;;14.70;99.90;;;;;;5044921;28;20051;-80
2022/11/08 10:39:10;;;;;;;2.72;2.00;;;14.80;99.90;;;;;;5050826;28;20062;-80
2022/11/08 10:41:46;;;;;;;4.60;1.25;;;14.80;99.90;;;;;;5049480;28;20429;-80
2022/11/08 10:44:19;;;;;;;5.43;2.13;;;14.90;99.90;;;;;;5045903;28;20054;-80
2022/11/08 10:46:56;;;;;;;3.55;2.05;;;14.90;99.90;;;;;;5042079;28;20605;-80
2022/11/08 10:49:36;;;;;;;5.47;2.20;;;14.90;99.90;;;;;;5053549;28;20067;-80
2022/11/08 10:52:21;;;;;;;5.40;2.20;;;14.90;99.90;;;;;;5050875;28;20045;-78
2022/11/08 10:54:50;;;;;;;2.47;1.58;;;14.80;99.90;;;;;;5045124;28;20156;-80
2022/11/08 10:57:56;;;;;;;3.88;2.25;;;14.80;99.90;;;;;;5042282;28;20052;-79
2022/11/08 11:00:22;;;;;;;5.80;2.45;;;14.80;99.90;;;;;;4983510;28;20053;-79
2022/11/08 11:03:01;;;;;;;2.40;1.45;;;14.70;99.90;;;;;;4982281;28;20050;-80
2022/11/08 11:05:31;;;;;;;3.78;2.00;;;14.70;99.90;;;;;;5015396;28;20505;-80
2022/11/08 11:08:09;;;;;;;4.55;1.98;;;14.60;99.90;;;;;;5049278;28;20148;-81
2022/11/08 11:10:39;;;;;;;6.00;2.35;;;14.50;99.90;;;;;;5047160;28;20040;-80
2022/11/08 11:13:27;;;;;;;4.13;1.67;;;14.60;99.90;;;;;;5053799;28;20147;-84
2022/11/08 11:15:57;;;;;;;5.68;2.92;;;14.50;99.90;;;;;;5045700;28;20092;-85
2022/11/08 11:18:44;;;;;;;3.05;2.85;;;14.50;99.90;;;;;;5050928;28;20048;-82
2022/11/08 11:21:16;;;;;;;4.10;1.58;;;14.50;99.90;;;;;;5046066;28;20060;-80
2022/11/08 11:23:46;;;;;;;4.80;1.85;;;14.50;99.90;;;;;;5047859;28;20080;-81
2022/11/08 11:26:34;;;;;;;4.80;1.67;;;14.50;99.90;;;;;;5042388;28;20053;-81
2022/11/08 11:29:03;;;;;;;2.72;1.50;;;14.60;99.90;;;;;;5038868;28;20095;-82
2022/11/08 11:31:36;;;;;;;2.25;1.67;;;14.70;99.90;;;;;;5039631;28;20134;-82
2022/11/08 11:34:22;;;;;;;;;;;14.90;99.90;;;;;;5045673;28;20048;-81
2022/11/08 11:37:09;;;;;;;4.80;1.80;;;14.90;99.90;;;;;;5047051;28;19980;-82
2022/11/08 11:39:57;;;;;;;1.95;1.77;;;15.00;99.90;;;;;;5047208;28;20055;-81
2022/11/08 11:42:32;;;;;;;2.42;1.58;;;15.10;99.90;;;;;;5043518;28;20052;-80
2022/11/08 11:45:05;;;;;;;1.60;1.50;;;15.10;99.90;;;;;;5043445;28;20055;-82
2022/11/08 11:47:43;;;;;;;3.38;1.73;;;15.20;99.90;;;;;;5055626;28;20056;-80
2022/11/08 11:50:33;;;;;;;2.08;1.67;;;15.20;99.90;;;;;;5042591;28;20152;-75
2022/11/08 11:53:06;;;;;;;2.33;1.60;;;15.20;99.90;;;;;;5045374;28;20350;-81
2022/11/08 11:55:50;;;;;;;2.20;1.70;;;15.20;99.90;;;;;;5042534;28;20045;-81
2022/11/08 11:58:38;;;;;;;4.65;2.05;;;15.20;99.90;;;;;;5045822;28;20087;-81
2022/11/08 12:01:22;;;;;;;1.55;1.45;;;15.30;99.90;;;;;;5043721;28;20045;-80
2022/11/08 12:03:57;;;;;;;4.22;1.80;;;15.30;99.90;;;;;;5050947;28;20073;-80
2022/11/08 12:06:34;;;;;;;3.72;1.83;;;15.30;99.90;;;;;;5038142;28;20391;-80
2022/11/08 12:09:29;;;;;;;5.35;1.80;;;15.30;99.90;;;;;;5041555;28;20113;-81
2022/11/08 12:12:14;;;;;;;1.73;1.55;;;15.30;99.90;;;;;;5043045;28;20044;-83
2022/11/08 12:14:44;;;;;;;1.65;1.40;;;15.30;99.90;;;;;;5045882;28;20906;-81
2022/11/08 12:17:37;;;;;;;1.73;1.45;;;15.40;99.90;;;;;;5049187;28;20048;-81
2022/11/08 12:20:17;;;;;;;3.20;1.50;;;15.40;99.90;;;;;;5040990;28;20047;-81
2022/11/08 12:22:46;;;;;;;4.97;1.60;;;15.40;99.90;;;;;;5042248;28;20119;-80
2022/11/08 12:25:45;;;;;;;2.80;1.70;;;15.40;99.90;;;;;;5047831;28;20159;-82
2022/11/08 12:28:27;;;;;;;2.00;1.80;;;15.30;99.90;;;;;;5049819;28;20057;-80
2022/11/08 12:31:19;;;;;;;3.88;1.95;;;15.40;99.90;;;;;;5030979;28;20491;-79
2022/11/08 12:34:02;;;;;;;1.85;1.60;;;15.40;99.90;;;;;;5045334;28;20746;-81
2022/11/08 12:36:30;;;;;;;2.60;1.60;;;15.40;99.90;;;;;;5053720;28;20195;-80
2022/11/08 12:39:15;;;;;;;2.13;1.70;;;15.40;99.90;;;;;;5037193;28;20045;-81
2022/11/08 12:41:49;;;;;;;2.72;1.85;;;15.40;99.90;;;;;;5049292;28;20968;-81
2022/11/08 12:44:53;;;;;;;1.90;1.50;;;15.30;99.90;;;;;;5046846;28;20052;-81
2022/11/08 12:47:37;;;;;;;3.85;2.03;;;15.30;99.90;;;;;;5051782;28;20049;-81
2022/11/08 12:50:09;;;;;;;4.82;1.45;;;15.40;99.90;;;;;;5042179;28;20040;-81
2022/11/08 12:52:53;;;;;;;2.80;2.08;;;15.40;99.90;;;;;;5041865;28;20088;-80
2022/11/08 12:55:31;;;;;;;2.50;1.52;;;15.40;99.90;;;;;;5048588;28;20083;-81
2022/11/08 12:58:00;;;;;;;4.35;1.50;;;15.30;99.90;;;;;;5051419;28;20063;-80
2022/11/08 13:00:28;;;;;;;2.40;1.35;;;15.40;99.90;;;;;;5042946;28;21359;-81
2022/11/08 13:03:10;;;;;;;1.90;1.48;;;15.40;99.90;;;;;;5050455;28;20488;-79
2022/11/08 13:05:51;;;;;;;1.58;1.38;;;15.40;99.90;;;;;;5042528;28;20044;-80
2022/11/08 13:08:30;;;;;;;2.22;1.38;;;15.50;99.90;;;;;;5042168;28;20057;-79
2022/11/08 13:11:03;;;;;;;3.88;1.60;;;15.50;99.90;;;;;;5048587;28;20693;-80
2022/11/08 13:13:49;;;;;;;3.08;1.50;;;15.50;99.90;;;;;;5045018;28;20041;-79
2022/11/08 13:16:17;;;;;;;4.10;2.35;;;15.50;99.90;;;;;;5049038;28;20066;-80
2022/11/08 13:19:06;;;;;;;3.75;2.40;;;15.50;99.90;;;;;;5053328;28;20056;-80
2022/11/08 13:21:37;;;;;;;2.50;1.80;;;15.50;99.90;;;;;;5045039;28;20130;-82
2022/11/08 13:24:05;;;;;;;3.05;1.60;;;15.50;99.90;;;;;;5051860;28;20824;-81